createdAt,value
2019-05-07T00:01:51.349Z,80.00
2019-05-07T00:04:17.691Z,79.90
2019-05-07T00:06:45.327Z,79.20
2019-05-07T00:09:12.777Z,79.40
2019-05-07T00:11:42.474Z,79.30
2019-05-07T00:14:09.184Z,79.20
2019-05-07T00:16:36.454Z,79.30
2019-05-07T00:19:03.687Z,78.50
2019-05-07T00:21:32.676Z,78.90
2019-05-07T00:24:02.244Z,78.90
2019-05-07T00:26:29.442Z,78.70
2019-05-07T00:28:56.464Z,78.20
2019-05-07T00:31:23.493Z,78.10
2019-05-07T00:33:52.598Z,78.30
2019-05-07T00:36:32.483Z,78.20
2019-05-07T00:39:12.357Z,78.30
2019-05-07T00:41:48.087Z,77.80
2019-05-07T00:44:15.448Z,77.70
2019-05-07T00:46:42.855Z,77.60
2019-05-07T00:49:12.571Z,77.40
2019-05-07T00:51:39.433Z,77.80
2019-05-07T00:54:06.939Z,78.00
2019-05-07T00:56:34.119Z,78.50
2019-05-07T00:59:02.220Z,78.90
2019-05-07T01:01:29.388Z,79.00
2019-05-07T01:03:56.847Z,79.00
2019-05-07T01:06:26.593Z,80.10
2019-05-07T01:08:53.602Z,80.70
2019-05-07T01:11:22.655Z,81.50
2019-05-07T01:13:51.885Z,81.80
2019-05-07T01:16:19.030Z,81.60
2019-05-07T01:18:46.407Z,81.50
2019-05-07T01:21:14.939Z,81.30
2019-05-07T01:23:42.852Z,80.80
2019-05-07T01:26:12.376Z,80.50
2019-05-07T01:28:57.353Z,80.60
2019-05-07T01:31:26.658Z,80.50
2019-05-07T01:34:04.131Z,80.20
2019-05-07T01:36:31.932Z,80.20
2019-05-07T01:38:59.238Z,79.80
2019-05-07T01:41:26.186Z,79.70
2019-05-07T01:43:53.464Z,79.50
2019-05-07T01:46:24.543Z,79.00
2019-05-07T01:48:53.592Z,78.90
2019-05-07T01:51:19.172Z,78.60
2019-05-07T01:53:46.489Z,78.30
2019-05-07T01:56:13.504Z,78.20
2019-05-07T01:58:42.493Z,78.00
2019-05-07T02:01:09.822Z,78.20
2019-05-07T02:04:12.738Z,77.90
2019-05-07T02:06:59.607Z,77.50
2019-05-07T02:09:39.098Z,77.20
2019-05-07T02:12:13.863Z,77.20
2019-05-07T02:14:42.250Z,77.10
2019-05-07T02:17:09.490Z,77.10
2019-05-07T02:19:36.737Z,76.80
2019-05-07T02:22:04.083Z,76.50
2019-05-07T02:24:33.675Z,76.40
2019-05-07T02:27:02.879Z,76.50
2019-05-07T02:29:32.400Z,76.60
2019-05-07T02:32:00.267Z,76.50
2019-05-07T02:34:30.009Z,76.50
2019-05-07T02:36:57.193Z,76.50
2019-05-07T02:39:33.291Z,76.30
2019-05-07T02:42:03.470Z,76.30
2019-05-07T02:44:33.034Z,76.20
2019-05-07T02:47:06.224Z,76.00
2019-05-07T02:49:43.869Z,76.00
2019-05-07T02:52:22.764Z,76.20
2019-05-07T02:55:08.643Z,76.50
2019-05-07T02:57:35.572Z,76.40
2019-05-07T03:00:04.814Z,76.40
2019-05-07T03:02:33.267Z,76.50
2019-05-07T03:05:04.875Z,76.70
2019-05-07T03:07:33.199Z,76.70
2019-05-07T03:10:03.596Z,76.80
2019-05-07T03:12:33.569Z,76.80
2019-05-07T03:15:04.101Z,76.60
2019-05-07T03:17:33.191Z,76.60
2019-05-07T03:20:03.124Z,76.70
2019-05-07T03:22:33.483Z,76.50
2019-05-07T03:25:08.884Z,76.10
2019-05-07T03:27:36.355Z,76.10
2019-05-07T03:30:17.247Z,76.20
2019-05-07T03:32:56.407Z,76.60
2019-05-07T03:35:37.230Z,76.90
2019-05-07T03:38:03.755Z,77.40
2019-05-07T03:40:32.975Z,77.60
2019-05-07T03:43:02.923Z,78.00
2019-05-07T03:45:47.711Z,78.30
2019-05-07T03:48:19.401Z,78.80
2019-05-07T03:50:46.662Z,79.00
2019-05-07T03:53:14.443Z,79.30
2019-05-07T03:55:44.726Z,79.80
2019-05-07T03:58:14.262Z,79.70
2019-05-07T04:00:43.984Z,80.20
2019-05-07T04:03:09.577Z,81.00
2019-05-07T04:05:36.902Z,80.80
2019-05-07T04:08:04.476Z,80.40
2019-05-07T04:10:33.815Z,80.40
2019-05-07T04:13:04.218Z,80.10
2019-05-07T04:15:32.981Z,79.90
2019-05-07T04:18:03.267Z,79.70
2019-05-07T04:20:29.559Z,79.50
2019-05-07T04:22:57.051Z,79.10
2019-05-07T04:25:36.457Z,78.50
2019-05-07T04:28:38.066Z,78.50
2019-05-07T04:31:05.608Z,78.60
2019-05-07T04:33:36.584Z,78.40
2019-05-07T04:36:23.000Z,77.80
2019-05-07T04:38:53.235Z,77.80
2019-05-07T04:41:23.002Z,77.50
2019-05-07T04:43:48.920Z,77.60
2019-05-07T04:46:15.974Z,77.00
2019-05-07T04:48:44.146Z,77.00
2019-05-07T04:51:13.501Z,77.10
2019-05-07T04:53:42.987Z,77.20
2019-05-07T04:56:09.878Z,77.40
2019-05-07T04:58:37.226Z,77.40
2019-05-07T05:01:06.536Z,77.50
2019-05-07T05:03:38.792Z,77.40
2019-05-07T05:06:03.725Z,77.20
2019-05-07T05:08:32.518Z,77.20
2019-05-07T05:11:02.983Z,77.20
2019-05-07T05:13:29.393Z,77.20
2019-05-07T05:15:56.723Z,77.10
2019-05-07T05:18:24.346Z,76.70
2019-05-07T05:21:12.025Z,77.20
2019-05-07T05:23:47.261Z,76.60
2019-05-07T05:26:14.688Z,76.30
2019-05-07T05:28:42.374Z,75.30
2019-05-07T05:31:09.813Z,74.40
2019-05-07T05:33:36.932Z,73.70
2019-05-07T05:36:04.093Z,73.80
2019-05-07T05:38:32.952Z,73.30
2019-05-07T05:41:03.764Z,72.90
2019-05-07T05:43:53.508Z,72.90
2019-05-07T05:46:22.677Z,71.70
2019-05-07T05:48:52.012Z,71.70
2019-05-07T05:51:37.383Z,71.40
2019-05-07T05:54:35.857Z,70.40
2019-05-07T05:57:34.938Z,70.10
2019-05-07T06:00:22.087Z,69.90
2019-05-07T06:03:15.102Z,70.10
2019-05-07T06:06:01.952Z,70.00
2019-05-07T06:08:43.445Z,69.40
2019-05-07T06:11:21.853Z,69.20
2019-05-07T06:14:07.171Z,69.30
2019-05-07T06:16:38.003Z,68.50
2019-05-07T06:19:25.585Z,68.50
2019-05-07T06:22:27.408Z,67.50
2019-05-07T06:25:15.110Z,66.60
2019-05-07T06:27:43.967Z,66.70
2019-05-07T06:30:12.079Z,65.70
2019-05-07T06:32:39.675Z,65.20
2019-05-07T06:35:07.707Z,65.10
2019-05-07T06:37:35.148Z,63.90
2019-05-07T06:40:24.018Z,64.30
2019-05-07T06:43:12.491Z,63.70
2019-05-07T06:45:42.907Z,63.20
2019-05-07T06:48:12.486Z,63.10
2019-05-07T06:50:43.201Z,61.90
2019-05-07T06:53:11.882Z,62.00
2019-05-07T06:55:39.434Z,62.00
2019-05-07T06:58:08.761Z,59.80
2019-05-07T07:01:13.665Z,60.70
2019-05-07T07:04:02.647Z,60.60
2019-05-07T07:06:35.724Z,59.10
2019-05-07T07:09:32.985Z,59.10
2019-05-07T07:12:02.235Z,58.60
2019-05-07T07:14:29.615Z,58.30
2019-05-07T07:16:57.027Z,57.20
2019-05-07T07:19:24.501Z,56.20
2019-05-07T07:21:52.737Z,54.70
2019-05-07T07:24:22.212Z,54.00
2019-05-07T07:26:49.569Z,53.40
2019-05-07T07:29:18.688Z,52.40
2019-05-07T07:31:52.852Z,52.40
2019-05-07T07:34:22.569Z,53.60
2019-05-07T07:37:15.592Z,53.80
2019-05-07T07:39:42.878Z,52.90
2019-05-07T07:42:12.264Z,52.30
2019-05-07T07:44:39.140Z,53.30
2019-05-07T07:47:06.578Z,52.70
2019-05-07T07:49:33.823Z,52.40
2019-05-07T07:52:03.001Z,51.70
2019-05-07T07:54:31.930Z,50.60
2019-05-07T07:57:04.517Z,49.70
2019-05-07T08:00:03.103Z,48.70
2019-05-07T08:02:56.909Z,48.30
2019-05-07T08:05:24.382Z,47.40
2019-05-07T08:07:55.592Z,46.20
2019-05-07T08:10:22.705Z,45.60
2019-05-07T08:12:49.799Z,45.00
2019-05-07T08:15:21.223Z,43.80
2019-05-07T08:17:46.894Z,42.60
2019-05-07T08:20:14.767Z,41.30
2019-05-07T08:22:42.405Z,40.30
2019-05-07T08:25:12.376Z,39.90
2019-05-07T08:27:41.820Z,39.30
2019-05-07T08:30:11.833Z,40.10
2019-05-07T08:32:46.458Z,39.80
2019-05-07T08:35:29.808Z,40.00
2019-05-07T08:37:57.069Z,40.30
2019-05-07T08:40:24.563Z,39.50
2019-05-07T08:42:52.480Z,40.10
2019-05-07T08:45:38.767Z,39.50
2019-05-07T08:48:12.493Z,38.10
2019-05-07T08:50:41.838Z,38.20
2019-05-07T08:53:08.722Z,38.00
2019-05-07T08:55:35.832Z,37.50
2019-05-07T08:58:03.423Z,37.00
2019-05-07T09:00:32.446Z,38.20
2019-05-07T09:03:01.610Z,37.30
2019-05-07T09:05:29.918Z,36.30
2019-05-07T09:07:58.987Z,36.90
2019-05-07T09:10:26.108Z,37.00
2019-05-07T09:12:53.235Z,37.70
2019-05-07T09:15:22.489Z,37.30
2019-05-07T09:17:49.533Z,37.20
2019-05-07T09:20:20.272Z,37.10
2019-05-07T09:22:47.458Z,37.90
2019-05-07T09:25:14.901Z,37.90
2019-05-07T09:27:44.317Z,37.80
2019-05-07T09:30:32.660Z,38.10
2019-05-07T09:33:34.307Z,36.80
2019-05-07T09:36:02.203Z,36.20
2019-05-07T09:38:29.715Z,37.60
2019-05-07T09:40:57.672Z,36.70
2019-05-07T09:43:25.025Z,36.30
2019-05-07T09:45:52.776Z,36.80
2019-05-07T09:48:22.165Z,37.10
2019-05-07T09:50:49.879Z,36.80
2019-05-07T09:53:16.977Z,36.00
2019-05-07T09:55:43.861Z,34.50
2019-05-07T09:58:12.582Z,33.60
2019-05-07T10:00:42.272Z,32.70
2019-05-07T10:03:09.802Z,33.50
2019-05-07T10:05:37.525Z,33.20
2019-05-07T10:08:05.009Z,32.10
2019-05-07T10:10:32.982Z,30.90
2019-05-07T10:13:12.079Z,30.10
2019-05-07T10:15:39.323Z,30.20
2019-05-07T10:18:12.532Z,30.20
2019-05-07T10:20:42.128Z,31.40
2019-05-07T10:23:18.764Z,31.30
2019-05-07T10:25:52.218Z,30.70
2019-05-07T10:28:22.581Z,29.10
2019-05-07T10:30:51.651Z,28.70
2019-05-07T10:33:19.104Z,29.10
2019-05-07T10:35:46.413Z,28.10
2019-05-07T10:38:13.794Z,28.00
2019-05-07T10:40:41.072Z,28.60
2019-05-07T10:43:08.635Z,29.30
2019-05-07T10:46:02.363Z,30.30
2019-05-07T10:48:43.643Z,30.20
2019-05-07T10:51:11.343Z,31.90
2019-05-07T10:53:38.750Z,31.00
2019-05-07T10:56:05.854Z,30.90
2019-05-07T10:58:32.709Z,30.50
2019-05-07T11:01:00.038Z,30.20
2019-05-07T11:03:27.308Z,29.50
2019-05-07T11:05:54.474Z,29.10
2019-05-07T11:08:22.158Z,29.10
2019-05-07T11:10:49.723Z,29.70
2019-05-07T11:13:17.177Z,30.50
2019-05-07T11:15:46.742Z,29.90
2019-05-07T11:18:28.017Z,31.40
2019-05-07T11:20:55.755Z,32.80
2019-05-07T11:23:23.041Z,33.40
2019-05-07T11:25:52.505Z,34.50
2019-05-07T11:28:19.449Z,34.50
2019-05-07T11:30:46.778Z,34.90
2019-05-07T11:33:14.040Z,35.10
2019-05-07T11:35:42.242Z,35.40
2019-05-07T11:38:18.766Z,33.40
2019-05-07T11:40:38.851Z,32.40
2019-05-07T11:43:14.672Z,32.10
2019-05-07T11:45:55.067Z,31.00
2019-05-07T11:48:24.477Z,28.30
2019-05-07T11:51:12.316Z,29.30
2019-05-07T11:54:02.093Z,30.20
2019-05-07T11:56:32.625Z,29.90
2019-05-07T11:59:00.494Z,28.60
2019-05-07T12:01:41.595Z,28.30
2019-05-07T12:03:58.458Z,27.80
2019-05-07T12:06:26.013Z,27.00
2019-05-07T12:08:53.428Z,27.80
2019-05-07T12:11:21.828Z,28.20
2019-05-07T12:13:49.167Z,29.20
2019-05-07T12:16:17.239Z,29.50
2019-05-07T12:18:44.627Z,30.20
2019-05-07T12:21:20.803Z,30.20
2019-05-07T12:23:42.147Z,30.60
2019-05-07T12:26:12.616Z,30.50
2019-05-07T12:28:41.823Z,31.60
2019-05-07T12:31:31.240Z,32.10
2019-05-07T12:34:14.455Z,33.10
2019-05-07T12:36:41.798Z,33.30
2019-05-07T12:39:12.569Z,31.90
2019-05-07T12:41:41.509Z,31.60
2019-05-07T12:44:08.797Z,31.80
2019-05-07T12:46:36.420Z,31.60
2019-05-07T12:49:04.707Z,31.40
2019-05-07T12:51:38.145Z,31.60
2019-05-07T12:54:13.680Z,31.90
2019-05-07T12:56:42.520Z,32.30
2019-05-07T12:59:09.930Z,33.50
2019-05-07T13:02:16.476Z,33.90
2019-05-07T13:04:32.703Z,33.60
2019-05-07T13:07:11.686Z,33.00
2019-05-07T13:09:39.508Z,33.80
2019-05-07T13:12:06.780Z,34.10
2019-05-07T13:14:34.209Z,35.50
2019-05-07T13:17:02.743Z,36.00
2019-05-07T13:19:33.226Z,34.40
2019-05-07T13:22:02.321Z,34.70
2019-05-07T13:24:31.573Z,34.70
2019-05-07T13:26:59.096Z,34.10
2019-05-07T13:29:26.365Z,34.00
2019-05-07T13:31:54.509Z,34.20
2019-05-07T13:34:24.887Z,34.70
2019-05-07T13:36:56.317Z,34.50
2019-05-07T13:39:43.434Z,33.30
2019-05-07T13:42:31.964Z,33.20
2019-05-07T13:45:07.974Z,32.10
2019-05-07T13:47:38.425Z,32.60
2019-05-07T13:50:06.685Z,31.70
2019-05-07T13:52:34.281Z,32.10
2019-05-07T13:55:01.209Z,32.30
2019-05-07T13:57:28.694Z,33.10
2019-05-07T13:59:56.265Z,32.90
2019-05-07T14:02:25.948Z,31.90
2019-05-07T14:04:53.280Z,31.70
2019-05-07T14:07:21.749Z,31.50
2019-05-07T14:09:49.277Z,31.10
2019-05-07T14:12:16.679Z,31.70
2019-05-07T14:14:44.607Z,31.70
2019-05-07T14:17:12.697Z,31.40
2019-05-07T14:19:42.168Z,31.00
2019-05-07T14:22:17.975Z,30.40
2019-05-07T14:24:39.558Z,29.70
2019-05-07T14:27:05.880Z,29.50
2019-05-07T14:29:35.084Z,29.50
2019-05-07T14:32:27.639Z,29.00
2019-05-07T14:35:12.361Z,29.20
2019-05-07T14:37:42.987Z,29.80
2019-05-07T14:40:12.762Z,29.80
2019-05-07T14:42:45.155Z,30.40
2019-05-07T14:45:12.767Z,29.80
2019-05-07T14:47:40.195Z,29.60
2019-05-07T14:50:07.851Z,30.30
2019-05-07T14:52:36.268Z,31.60
2019-05-07T14:55:05.284Z,31.40
2019-05-07T14:57:32.823Z,32.40
2019-05-07T15:00:03.039Z,32.30
2019-05-07T15:02:32.622Z,32.30
2019-05-07T15:05:02.666Z,32.50
2019-05-07T15:07:29.803Z,33.30
2019-05-07T15:09:57.107Z,33.80
2019-05-07T15:12:25.074Z,34.10
2019-05-07T15:14:55.608Z,35.30
2019-05-07T15:17:42.612Z,35.00
2019-05-07T15:20:10.772Z,35.30
2019-05-07T15:22:56.255Z,34.20
2019-05-07T15:25:23.595Z,33.80
2019-05-07T15:27:52.794Z,33.50
2019-05-07T15:30:21.932Z,33.40
2019-05-07T15:32:49.126Z,33.00
2019-05-07T15:35:16.229Z,31.60
2019-05-07T15:37:43.436Z,30.90
2019-05-07T15:40:10.537Z,30.60
2019-05-07T15:42:37.984Z,30.80
2019-05-07T15:45:05.738Z,31.10
2019-05-07T15:47:38.692Z,32.70
2019-05-07T15:50:06.401Z,33.60
2019-05-07T15:52:58.465Z,33.70
2019-05-07T15:55:22.522Z,36.10
2019-05-07T15:57:52.144Z,35.70
2019-05-07T16:00:25.348Z,35.60
2019-05-07T16:02:57.091Z,36.60
2019-05-07T16:05:24.561Z,36.70
2019-05-07T16:07:52.232Z,35.70
2019-05-07T16:10:19.854Z,34.10
2019-05-07T16:12:47.582Z,33.10
2019-05-07T16:15:14.963Z,33.60
2019-05-07T16:17:46.798Z,33.30
2019-05-07T16:20:14.396Z,33.50
2019-05-07T16:22:45.111Z,34.10
2019-05-07T16:25:15.391Z,34.40
2019-05-07T16:27:43.952Z,34.40
2019-05-07T16:30:14.351Z,34.90
2019-05-07T16:32:42.341Z,35.90
2019-05-07T16:35:12.433Z,35.20
2019-05-07T16:37:40.272Z,35.70
2019-05-07T16:40:08.618Z,36.00
2019-05-07T16:42:38.115Z,35.90
2019-05-07T16:45:05.725Z,36.30
2019-05-07T16:47:33.262Z,36.20
2019-05-07T16:50:03.987Z,35.90
2019-05-07T16:52:34.755Z,36.40
2019-05-07T16:54:59.580Z,36.00
2019-05-07T16:57:36.025Z,36.40
2019-05-07T17:00:05.428Z,37.10
2019-05-07T17:02:37.885Z,37.20
2019-05-07T17:05:07.186Z,37.30
2019-05-07T17:07:37.734Z,37.90
2019-05-07T17:10:05.042Z,38.10
2019-05-07T17:12:32.865Z,38.50
2019-05-07T17:14:59.960Z,39.30
2019-05-07T17:17:27.312Z,40.00
2019-05-07T17:19:54.251Z,41.10
2019-05-07T17:22:22.749Z,41.30
2019-05-07T17:24:51.919Z,41.50
2019-05-07T17:27:19.581Z,41.70
2019-05-07T17:29:46.950Z,42.10
2019-05-07T17:32:14.115Z,42.20
2019-05-07T17:34:42.092Z,42.60
2019-05-07T17:37:09.861Z,42.40
2019-05-07T17:39:36.886Z,43.00
2019-05-07T17:42:04.895Z,44.10
2019-05-07T17:44:33.941Z,44.10
2019-05-07T17:47:01.939Z,43.90
2019-05-07T17:49:29.663Z,43.90
2019-05-07T17:51:56.764Z,44.40
2019-05-07T17:54:23.829Z,45.00
2019-05-07T17:56:52.618Z,45.20
2019-05-07T17:59:20.012Z,45.70
2019-05-07T18:02:11.697Z,45.60
2019-05-07T18:04:50.456Z,45.90
2019-05-07T18:07:09.191Z,46.40
2019-05-07T18:09:37.110Z,46.70
2019-05-07T18:12:04.494Z,46.30
2019-05-07T18:14:32.311Z,47.00
2019-05-07T18:17:19.036Z,47.50
2019-05-07T18:19:48.390Z,48.20
2019-05-07T18:22:15.992Z,48.50
2019-05-07T18:24:43.738Z,48.90
2019-05-07T18:27:16.712Z,49.00
2019-05-07T18:29:43.823Z,50.30
2019-05-07T18:32:12.449Z,52.20
2019-05-07T18:34:40.127Z,52.00
2019-05-07T18:37:07.531Z,52.10
2019-05-07T18:39:38.139Z,52.10
2019-05-07T18:42:05.583Z,52.40
2019-05-07T18:44:32.854Z,52.90
2019-05-07T18:47:02.165Z,53.40
2019-05-07T18:49:29.726Z,54.50
2019-05-07T18:51:56.568Z,54.60
2019-05-07T18:54:30.586Z,55.10
2019-05-07T18:56:52.984Z,55.90
2019-05-07T18:59:23.351Z,55.90
2019-05-07T19:01:52.705Z,56.20
2019-05-07T19:04:21.933Z,57.20
2019-05-07T19:06:51.611Z,57.40
2019-05-07T19:09:19.598Z,57.50
2019-05-07T19:11:46.883Z,57.80
2019-05-07T19:14:14.219Z,57.90
2019-05-07T19:16:43.172Z,58.40
2019-05-07T19:19:12.472Z,58.80
2019-05-07T19:21:42.164Z,59.10
2019-05-07T19:24:12.776Z,59.70
2019-05-07T19:26:41.939Z,60.20
2019-05-07T19:29:08.876Z,60.80
2019-05-07T19:31:36.539Z,61.10
2019-05-07T19:34:04.026Z,61.40
2019-05-07T19:36:32.148Z,61.70
2019-05-07T19:39:01.810Z,61.90
2019-05-07T19:41:32.118Z,62.10
2019-05-07T19:43:59.491Z,62.40
2019-05-07T19:46:26.754Z,63.00
2019-05-07T19:48:53.862Z,63.60
2019-05-07T19:51:21.902Z,64.30
2019-05-07T19:53:48.771Z,64.80
2019-05-07T19:56:24.896Z,64.80
2019-05-07T19:58:52.695Z,64.70
2019-05-07T20:01:25.143Z,64.80
2019-05-07T20:03:52.844Z,65.60
2019-05-07T20:06:20.500Z,66.20
2019-05-07T20:08:47.695Z,66.60
2019-05-07T20:11:42.502Z,66.50
2019-05-07T20:14:09.939Z,66.60
2019-05-07T20:16:37.837Z,66.80
2019-05-07T20:19:05.109Z,67.00
2019-05-07T20:21:32.719Z,67.00
2019-05-07T20:24:01.754Z,67.10
2019-05-07T20:26:28.892Z,67.10
2019-05-07T20:28:56.248Z,67.20
2019-05-07T20:31:23.656Z,67.30
2019-05-07T20:33:52.991Z,67.10
2019-05-07T20:36:20.798Z,67.30
2019-05-07T20:38:48.272Z,67.60
2019-05-07T20:41:16.564Z,68.20
2019-05-07T20:43:44.248Z,68.20
2019-05-07T20:46:12.164Z,68.40
2019-05-07T20:48:39.258Z,68.70
2019-05-07T20:51:06.488Z,68.80
2019-05-07T20:54:12.859Z,69.00
2019-05-07T20:56:46.510Z,69.40
2019-05-07T20:59:13.084Z,69.90
2019-05-07T21:01:42.041Z,70.10
2019-05-07T21:04:09.204Z,70.30
2019-05-07T21:06:36.485Z,70.40
2019-05-07T21:09:05.614Z,70.70
2019-05-07T21:11:34.753Z,71.20
2019-05-07T21:14:03.267Z,71.30
2019-05-07T21:16:32.732Z,72.00
2019-05-07T21:19:01.781Z,72.20
2019-05-07T21:21:28.689Z,72.10
2019-05-07T21:23:55.581Z,72.10
2019-05-07T21:26:23.767Z,72.40
2019-05-07T21:28:52.856Z,72.40
2019-05-07T21:31:39.541Z,72.30
2019-05-07T21:34:19.661Z,72.60
2019-05-07T21:36:59.719Z,72.80
2019-05-07T21:39:42.245Z,73.30
2019-05-07T21:42:22.820Z,73.30
2019-05-07T21:45:02.951Z,73.40
2019-05-07T21:47:43.153Z,73.60
2019-05-07T21:50:22.880Z,73.50
2019-05-07T21:53:07.455Z,73.60
2019-05-07T21:56:12.193Z,73.40
2019-05-07T21:59:08.214Z,73.20
2019-05-07T22:04:44.703Z,73.20
2019-05-07T22:07:25.395Z,73.40
2019-05-07T22:10:05.680Z,73.40
2019-05-07T22:12:45.277Z,73.40
2019-05-07T22:18:05.588Z,73.00
2019-05-07T22:20:45.739Z,73.10
2019-05-07T22:23:25.628Z,73.20
2019-05-07T22:26:18.955Z,73.30
2019-05-07T22:28:47.455Z,73.30
2019-05-07T22:31:34.099Z,73.40
2019-05-07T22:34:22.254Z,73.30
2019-05-07T22:37:21.978Z,73.30
2019-05-07T22:40:32.157Z,73.40
2019-05-07T22:43:33.528Z,73.50
2019-05-07T22:46:13.551Z,73.40
2019-05-07T22:48:54.836Z,73.50
2019-05-07T22:51:34.887Z,73.50
2019-05-07T22:54:15.055Z,73.60
2019-05-07T22:56:58.876Z,73.90
2019-05-07T22:59:38.126Z,74.20
2019-05-07T23:02:18.370Z,74.40
2019-05-07T23:04:58.327Z,75.00
2019-05-07T23:07:38.484Z,75.40
2019-05-07T23:10:18.763Z,75.70
2019-05-07T23:12:59.039Z,75.90
2019-05-07T23:15:39.177Z,76.10
2019-05-07T23:18:19.469Z,76.30
2019-05-07T23:20:59.202Z,76.60
2019-05-07T23:23:41.995Z,76.60
2019-05-07T23:26:23.293Z,76.60
2019-05-07T23:29:03.020Z,76.70
2019-05-07T23:31:41.082Z,76.50
2019-05-07T23:34:27.609Z,76.30
2019-05-07T23:37:07.287Z,76.10
2019-05-07T23:39:49.269Z,75.80
2019-05-07T23:42:32.293Z,75.50
2019-05-07T23:45:12.615Z,75.30
2019-05-07T23:47:52.249Z,75.20
2019-05-07T23:50:32.488Z,75.10
2019-05-07T23:53:13.024Z,75.00
2019-05-07T23:55:53.455Z,74.90
2019-05-07T23:58:33.702Z,74.90
